Time;durP1;ratioP1;P1;durP2;ratioP2;P2;SDS_P1;SDS_P2;PMS_P1;PMS_P2;Temp;Humidity;BMP_temperature;BMP_pressure;BME280_temperature;BME280_humidity;BME280_pressure;Samples;Min_cycle;Max_cycle;Signal;HPM_P1;HPM_P2
2022/08/26 00:02:16;;;;;;;4.20;1.27;;;25.10;94.70;;;;;;5144108;27;20197;-46
2022/08/26 00:04:51;;;;;;;3.17;1.30;;;25.00;94.70;;;;;;5115701;27;20197;-39
2022/08/26 00:07:18;;;;;;;5.15;1.77;;;25.00;94.50;;;;;;5131235;27;20208;-38
2022/08/26 00:09:46;;;;;;;5.00;1.38;;;25.00;94.90;;;;;;5144852;27;20221;-39
2022/08/26 00:12:13;;;;;;;6.82;1.83;;;25.00;94.70;;;;;;5109306;28;20206;-38
2022/08/26 00:14:41;;;;;;;6.97;1.60;;;24.90;95.00;;;;;;5109515;28;20525;-39
2022/08/26 00:17:11;;;;;;;5.38;1.30;;;24.90;94.90;;;;;;5119133;27;20196;-39
2022/08/26 00:19:40;;;;;;;5.65;1.52;;;24.90;95.20;;;;;;5150610;27;20221;-39
2022/08/26 00:22:09;;;;;;;5.22;1.40;;;24.90;94.80;;;;;;5144026;27;20198;-39
2022/08/26 00:24:40;;;;;;;3.88;1.33;;;24.80;94.80;;;;;;5109286;27;20206;-38
2022/08/26 00:27:16;;;;;;;4.15;1.50;;;24.80;95.50;;;;;;5119985;27;20505;-38
2022/08/26 00:29:46;;;;;;;4.00;1.50;;;24.80;94.70;;;;;;5150558;27;20209;-38
2022/08/26 00:32:13;;;;;;;2.75;1.00;;;24.70;95.00;;;;;;5150511;27;20259;-39
2022/08/26 00:34:41;;;;;;;4.50;1.38;;;24.70;94.70;;;;;;5150492;27;20212;-38
2022/08/26 00:37:10;;;;;;;3.50;1.23;;;24.70;94.80;;;;;;5101808;27;20579;-38
2022/08/26 00:39:44;;;;;;;5.25;1.40;;;24.70;95.50;;;;;;5150033;27;20224;-38
2022/08/26 00:42:13;;;;;;;6.30;1.58;;;24.60;96.10;;;;;;5104879;27;20271;-38
2022/08/26 00:44:41;;;;;;;3.92;0.98;;;24.60;95.20;;;;;;5119769;27;20201;-39
2022/08/26 00:47:28;;;;;;;5.13;1.50;;;24.50;95.00;;;;;;5133049;27;20201;-39
2022/08/26 00:50:00;;;;;;;5.82;1.27;;;24.50;96.10;;;;;;5150084;27;20205;-38
2022/08/26 00:52:34;;;;;;;4.50;1.58;;;24.50;96.10;;;;;;5145578;27;20257;-39
2022/08/26 00:55:16;;;;;;;3.78;1.23;;;24.50;96.50;;;;;;5149599;27;20298;-39
2022/08/26 00:57:49;;;;;;;4.13;1.35;;;24.50;95.40;;;;;;5143203;27;20208;-39
2022/08/26 01:00:21;;;;;;;3.28;0.98;;;24.40;95.10;;;;;;5090475;28;20221;-38
2022/08/26 01:02:49;;;;;;;3.60;0.93;;;24.40;95.00;;;;;;5108628;27;20296;-39
2022/08/26 01:05:18;;;;;;;6.57;1.30;;;24.40;96.00;;;;;;5114432;27;20619;-38
2022/08/26 01:07:46;;;;;;;2.78;0.77;;;24.30;95.30;;;;;;5098114;27;20308;-40
2022/08/26 01:10:21;;;;;;;4.50;1.30;;;24.30;95.00;;;;;;5121816;27;20664;-39
2022/08/26 01:12:59;;;;;;;4.13;0.90;;;24.30;95.70;;;;;;5092106;27;20225;-38
2022/08/26 01:15:38;;;;;;;2.92;0.90;;;24.30;96.00;;;;;;5110918;27;20218;-38
2022/08/26 01:18:10;;;;;;;3.63;1.00;;;24.30;95.10;;;;;;5116457;27;20202;-38
2022/08/26 01:20:54;;;;;;;5.85;0.90;;;24.30;95.60;;;;;;5109302;28;20225;-38
2022/08/26 01:23:34;;;;;;;2.60;1.10;;;24.30;95.80;;;;;;5127232;27;20631;-38
2022/08/26 01:26:11;;;;;;;3.60;0.80;;;24.20;96.00;;;;;;5118474;27;20689;-38
2022/08/26 01:28:52;;;;;;;4.75;0.90;;;24.20;95.30;;;;;;5113483;27;20579;-39
2022/08/26 01:31:23;;;;;;;3.15;0.95;;;24.20;95.10;;;;;;5133391;27;20720;-38
2022/08/26 01:34:13;;;;;;;2.17;0.68;;;24.10;95.10;;;;;;5131134;27;20216;-38
2022/08/26 01:36:47;;;;;;;1.92;0.73;;;24.10;94.90;;;;;;5109731;27;20742;-39
2022/08/26 01:39:18;;;;;;;2.55;1.05;;;24.10;95.00;;;;;;5140734;27;20303;-38
2022/08/26 01:41:52;;;;;;;1.50;0.65;;;24.10;95.10;;;;;;5130979;27;20285;-39
2022/08/26 01:44:25;;;;;;;4.15;0.90;;;24.00;94.90;;;;;;5149677;27;20201;-38
2022/08/26 01:46:57;;;;;;;1.98;0.60;;;24.00;94.80;;;;;;5142057;27;20306;-39
2022/08/26 01:49:26;;;;;;;5.00;1.08;;;24.10;95.10;;;;;;5090378;28;20222;-38
2022/08/26 01:51:58;;;;;;;2.97;0.90;;;24.00;94.90;;;;;;5090131;27;20208;-39
2022/08/26 01:54:30;;;;;;;4.75;0.75;;;24.00;95.20;;;;;;5138764;27;20295;-38
2022/08/26 01:57:00;;;;;;;5.97;0.70;;;24.00;95.10;;;;;;5148826;27;20631;-38
2022/08/26 01:59:29;;;;;;;4.00;1.33;;;24.00;95.00;;;;;;5148846;27;20240;-38
2022/08/26 02:01:56;;;;;;;3.83;0.93;;;24.00;95.20;;;;;;5148750;27;20821;-38
2022/08/26 02:04:36;;;;;;;4.60;0.98;;;24.00;95.60;;;;;;5146966;27;20626;-39
2022/08/26 02:07:08;;;;;;;2.90;0.80;;;23.90;95.00;;;;;;5123326;27;20212;-39
2022/08/26 02:09:40;;;;;;;2.42;1.02;;;23.90;95.30;;;;;;5118708;27;20686;-38
2022/08/26 02:12:13;;;;;;;3.10;0.60;;;23.90;95.50;;;;;;5120160;27;20624;-39
2022/08/26 02:14:48;;;;;;;4.90;0.77;;;23.90;95.10;;;;;;5143020;27;20745;-38
2022/08/26 02:17:20;;;;;;;4.20;0.63;;;23.90;94.90;;;;;;5140648;27;20731;-38
2022/08/26 02:19:49;;;;;;;1.75;0.70;;;23.90;94.80;;;;;;5109823;27;20292;-39
2022/08/26 02:22:21;;;;;;;2.78;0.70;;;23.80;94.80;;;;;;5127223;27;20308;-38
2022/08/26 02:25:31;;;;;;;3.38;0.80;;;23.80;94.80;;;;;;5143242;27;20557;-38
2022/08/26 02:28:01;;;;;;;2.15;0.68;;;23.90;94.80;;;;;;5106879;28;20206;-39
2022/08/26 02:30:32;;;;;;;2.50;0.70;;;23.90;94.80;;;;;;5107306;28;20603;-39
2022/08/26 02:33:05;;;;;;;2.40;0.65;;;23.90;94.80;;;;;;5112730;27;20204;-38
2022/08/26 02:35:35;;;;;;;2.28;0.70;;;23.90;94.90;;;;;;5117212;27;20273;-39
2022/08/26 02:38:09;;;;;;;1.58;0.77;;;23.90;95.10;;;;;;5124383;28;20332;-39
2022/08/26 02:40:41;;;;;;;4.40;0.90;;;23.90;94.80;;;;;;5107119;28;20233;-39
2022/08/26 02:43:11;;;;;;;2.05;0.77;;;23.90;94.80;;;;;;5115665;27;20617;-39
2022/08/26 02:45:43;;;;;;;2.53;0.82;;;23.90;94.80;;;;;;5148649;27;20596;-40
2022/08/26 02:48:20;;;;;;;4.03;0.95;;;23.90;94.80;;;;;;5148363;27;20634;-39
2022/08/26 02:50:51;;;;;;;2.90;0.90;;;23.90;94.90;;;;;;5109242;27;20638;-38
2022/08/26 02:53:19;;;;;;;3.65;0.90;;;23.90;95.10;;;;;;5113725;27;20232;-39
2022/08/26 02:55:54;;;;;;;3.03;1.10;;;23.90;95.00;;;;;;5130514;27;20208;-39
2022/08/26 02:58:23;;;;;;;2.17;0.98;;;23.90;95.10;;;;;;5118275;27;20242;-38
2022/08/26 03:00:52;;;;;;;4.68;1.10;;;23.90;94.90;;;;;;5118762;28;20218;-38
2022/08/26 03:03:21;;;;;;;5.40;1.00;;;23.90;95.00;;;;;;5131122;27;20200;-38
2022/08/26 03:05:55;;;;;;;2.47;0.90;;;23.90;95.10;;;;;;5148024;27;20213;-38
2022/08/26 03:08:22;;;;;;;3.25;1.13;;;23.90;95.00;;;;;;5128788;27;20293;-38
2022/08/26 03:10:53;;;;;;;5.50;1.05;;;23.90;95.40;;;;;;5129961;27;20201;-38
2022/08/26 03:13:21;;;;;;;4.38;1.63;;;23.90;95.10;;;;;;5126599;27;20734;-38
2022/08/26 03:15:49;;;;;;;4.28;1.20;;;23.90;95.10;;;;;;5110759;27;20317;-38
2022/08/26 03:18:21;;;;;;;3.05;1.10;;;23.80;95.10;;;;;;5118241;28;20267;-38
2022/08/26 03:20:49;;;;;;;3.92;1.15;;;23.80;96.00;;;;;;5108362;28;20232;-38
2022/08/26 03:23:19;;;;;;;1.85;1.10;;;23.80;95.40;;;;;;5114803;27;20197;-39
2022/08/26 03:25:52;;;;;;;2.53;0.90;;;23.80;95.20;;;;;;5131231;27;20209;-38
2022/08/26 03:28:19;;;;;;;8.20;2.08;;;23.70;95.20;;;;;;5131042;27;20284;-38
2022/08/26 03:30:49;;;;;;;5.93;1.15;;;23.70;95.10;;;;;;5129703;27;20623;-39
2022/08/26 03:33:19;;;;;;;2.67;1.20;;;23.70;95.10;;;;;;5115838;27;20294;-38
2022/08/26 03:35:51;;;;;;;3.70;1.02;;;23.70;95.30;;;;;;5123702;27;20255;-39
2022/08/26 03:38:23;;;;;;;2.33;0.95;;;23.70;95.20;;;;;;5127783;27;20375;-38
2022/08/26 03:40:51;;;;;;;1.55;1.20;;;23.70;95.20;;;;;;5110540;28;20270;-38
2022/08/26 03:43:18;;;;;;;4.95;1.40;;;23.60;95.10;;;;;;5115513;27;20209;-38
2022/08/26 03:45:46;;;;;;;3.72;1.23;;;23.60;95.10;;;;;;5132969;27;20243;-38
2022/08/26 03:48:13;;;;;;;4.88;1.40;;;23.60;95.10;;;;;;5141147;27;20667;-38
2022/08/26 03:50:43;;;;;;;2.30;1.20;;;23.60;95.20;;;;;;5127633;27;20216;-38
2022/08/26 03:53:15;;;;;;;5.32;1.20;;;23.60;95.00;;;;;;5127663;27;20288;-39
2022/08/26 03:55:49;;;;;;;3.58;1.40;;;23.60;95.10;;;;;;5129482;27;20702;-39
2022/08/26 03:58:19;;;;;;;2.67;1.30;;;23.60;95.60;;;;;;5151264;27;20236;-38
2022/08/26 04:00:46;;;;;;;4.07;1.35;;;23.50;95.10;;;;;;5132806;27;20902;-38
2022/08/26 04:06:07;;;;;;;4.55;1.25;;;23.50;95.20;;;;;;5109946;27;20212;-38
2022/08/26 04:08:36;;;;;;;4.30;1.58;;;23.40;95.10;;;;;;5097065;27;20207;-38
2022/08/26 04:11:15;;;;;;;2.25;1.13;;;23.40;95.10;;;;;;5151319;27;20581;-38
2022/08/26 04:13:42;;;;;;;3.47;1.15;;;23.40;95.20;;;;;;5131032;27;20207;-39
2022/08/26 04:16:12;;;;;;;2.83;1.30;;;23.40;95.10;;;;;;5151170;27;20249;-38
2022/08/26 04:18:40;;;;;;;3.45;1.38;;;23.40;95.30;;;;;;5150545;27;20209;-39
2022/08/26 04:21:13;;;;;;;2.10;1.20;;;23.40;95.10;;;;;;5120627;27;20226;-38
2022/08/26 04:23:41;;;;;;;3.28;1.63;;;23.40;95.30;;;;;;5116536;27;20205;-38
2022/08/26 04:26:15;;;;;;;5.38;1.40;;;23.40;95.20;;;;;;5120173;27;20267;-38
2022/08/26 04:28:42;;;;;;;4.30;1.42;;;23.40;95.50;;;;;;5110209;28;20198;-38
2022/08/26 04:31:13;;;;;;;3.45;1.45;;;23.40;95.10;;;;;;5090911;28;20194;-39
2022/08/26 04:33:43;;;;;;;3.22;1.35;;;23.40;95.20;;;;;;5127593;27;20555;-36
2022/08/26 04:36:14;;;;;;;3.17;1.40;;;23.40;95.20;;;;;;5139406;27;20213;-36
2022/08/26 04:38:45;;;;;;;3.05;1.60;;;23.40;95.20;;;;;;5144967;27;20523;-36
2022/08/26 04:41:12;;;;;;;4.53;1.52;;;23.30;95.20;;;;;;5091047;28;20317;-37
2022/08/26 04:43:46;;;;;;;4.38;1.77;;;23.30;95.10;;;;;;5109488;27;20485;-37
2022/08/26 04:46:21;;;;;;;3.33;1.40;;;23.30;95.30;;;;;;5112337;27;20213;-37
2022/08/26 04:48:50;;;;;;;3.65;1.30;;;23.30;95.20;;;;;;5112049;27;20291;-38
2022/08/26 04:51:19;;;;;;;3.13;1.60;;;23.30;95.20;;;;;;5128953;27;20292;-36
2022/08/26 04:53:47;;;;;;;5.32;1.50;;;23.30;95.20;;;;;;5116344;27;20204;-39
2022/08/26 04:56:18;;;;;;;3.15;1.48;;;23.30;95.10;;;;;;5138886;27;20205;-39
2022/08/26 04:58:48;;;;;;;6.35;2.08;;;23.30;95.20;;;;;;5110845;27;20309;-39
2022/08/26 05:01:15;;;;;;;2.60;1.25;;;23.30;95.20;;;;;;5093910;28;20234;-38
2022/08/26 05:03:45;;;;;;;2.33;1.30;;;23.30;95.20;;;;;;5118921;27;20200;-37
2022/08/26 05:06:18;;;;;;;4.15;1.58;;;23.30;95.30;;;;;;5108572;28;20283;-36
2022/08/26 05:08:50;;;;;;;3.45;1.40;;;23.30;95.50;;;;;;5124778;27;20264;-37
2022/08/26 05:11:21;;;;;;;5.53;1.40;;;23.20;95.30;;;;;;5130870;27;20221;-37
2022/08/26 05:13:49;;;;;;;3.80;1.50;;;23.20;95.40;;;;;;5108869;27;20653;-37
2022/08/26 05:16:16;;;;;;;4.10;1.55;;;23.20;95.30;;;;;;5115823;27;20687;-38
2022/08/26 05:18:44;;;;;;;5.00;1.50;;;23.20;95.50;;;;;;5117633;27;20218;-38
2022/08/26 05:21:18;;;;;;;3.22;1.33;;;23.20;95.30;;;;;;5118416;27;20249;-38
2022/08/26 05:23:50;;;;;;;4.28;1.20;;;23.20;95.30;;;;;;5097522;27;20201;-38
2022/08/26 05:26:18;;;;;;;3.45;1.33;;;23.20;95.30;;;;;;5104136;27;20265;-38
2022/08/26 05:28:56;;;;;;;1.55;1.17;;;23.20;95.50;;;;;;5121589;27;20615;-39
2022/08/26 05:31:26;;;;;;;2.65;1.08;;;23.20;95.50;;;;;;5092515;27;20209;-36
2022/08/26 05:33:56;;;;;;;2.33;1.23;;;23.20;96.10;;;;;;5115867;27;20198;-39
2022/08/26 05:36:26;;;;;;;1.83;1.20;;;23.20;95.80;;;;;;5129885;27;20224;-38
2022/08/26 05:38:57;;;;;;;3.50;1.33;;;23.20;95.50;;;;;;5129411;27;20295;-38
2022/08/26 05:41:33;;;;;;;2.45;1.23;;;23.20;95.60;;;;;;5149092;27;20219;-37
2022/08/26 05:44:07;;;;;;;7.18;1.60;;;23.20;95.70;;;;;;5116702;27;20615;-38
2022/08/26 05:46:35;;;;;;;3.47;1.42;;;23.10;95.50;;;;;;5138179;27;20217;-38
2022/08/26 05:49:05;;;;;;;7.68;2.25;;;23.20;96.10;;;;;;5115539;27;20205;-38
2022/08/26 05:51:41;;;;;;;17.65;4.18;;;23.20;95.60;;;;;;5110765;27;20201;-38
2022/08/26 05:54:09;;;;;;;2.28;1.02;;;23.20;96.30;;;;;;5100871;27;20244;-38
2022/08/26 05:56:38;;;;;;;6.00;1.70;;;23.20;95.70;;;;;;5116139;27;20758;-38
2022/08/26 05:59:05;;;;;;;2.45;0.93;;;23.20;95.60;;;;;;5085941;28;20709;-38
2022/08/26 06:01:42;;;;;;;5.00;1.20;;;23.20;95.80;;;;;;5088111;28;20228;-38
2022/08/26 06:04:12;;;;;;;1.65;0.70;;;23.20;95.70;;;;;;5090078;28;20214;-38
2022/08/26 06:06:42;;;;;;;3.13;1.17;;;23.20;95.60;;;;;;5099891;28;20293;-38
2022/08/26 06:09:13;;;;;;;4.38;1.27;;;23.20;96.10;;;;;;5092645;28;20292;-38
2022/08/26 06:11:50;;;;;;;2.13;1.02;;;23.20;96.10;;;;;;5092197;28;20213;-38
2022/08/26 06:14:20;;;;;;;7.63;1.65;;;23.20;95.80;;;;;;5105047;28;20214;-38
2022/08/26 06:16:47;;;;;;;8.57;1.85;;;23.20;95.80;;;;;;5105581;28;20297;-37
2022/08/26 06:19:17;;;;;;;4.90;1.08;;;23.20;95.90;;;;;;5097206;28;20428;-36
2022/08/26 06:21:46;;;;;;;2.55;0.95;;;23.20;96.20;;;;;;5092651;28;20784;-37
2022/08/26 06:27:13;;;;;;;8.80;1.70;;;23.30;96.20;;;;;;5111354;27;20683;-38
2022/08/26 06:29:43;;;;;;;4.90;1.20;;;23.30;96.00;;;;;;5092242;28;20672;-38
2022/08/26 06:32:10;;;;;;;6.30;1.55;;;23.30;95.90;;;;;;5098470;28;20249;-37
2022/08/26 06:34:42;;;;;;;8.07;1.65;;;23.40;95.90;;;;;;5107438;28;20248;-37
2022/08/26 06:37:12;;;;;;;7.05;1.25;;;23.40;96.00;;;;;;5103734;28;20620;-38
2022/08/26 06:39:42;;;;;;;6.50;1.10;;;23.40;96.10;;;;;;5077778;28;20199;-37
2022/08/26 06:42:14;;;;;;;3.88;1.05;;;23.40;96.50;;;;;;5094084;28;20223;-37
2022/08/26 06:44:46;;;;;;;2.28;0.80;;;23.40;96.50;;;;;;5102169;28;20190;-38
2022/08/26 06:47:16;;;;;;;4.15;0.77;;;23.40;96.10;;;;;;5108535;28;20208;-37
2022/08/26 06:49:43;;;;;;;3.03;1.00;;;23.30;96.50;;;;;;5106916;28;20694;-37
2022/08/26 06:52:10;;;;;;;4.15;1.45;;;23.40;96.10;;;;;;5102609;28;20203;-38
2022/08/26 06:54:41;;;;;;;10.10;1.40;;;23.40;96.00;;;;;;5094811;27;20246;-38
2022/08/26 06:57:11;;;;;;;4.30;1.30;;;23.40;96.10;;;;;;5090344;28;20849;-38
2022/08/26 06:59:40;;;;;;;3.22;1.08;;;23.40;96.20;;;;;;5114984;27;20340;-37
2022/08/26 07:02:09;;;;;;;5.28;0.98;;;23.40;96.20;;;;;;5093837;28;20228;-38
2022/08/26 07:04:46;;;;;;;9.38;1.65;;;23.50;96.20;;;;;;5121619;27;20189;-37
2022/08/26 07:07:19;;;;;;;4.90;1.20;;;23.50;96.30;;;;;;5128352;27;20209;-38
2022/08/26 07:09:48;;;;;;;4.53;1.10;;;23.50;96.20;;;;;;5105767;27;20198;-38
2022/08/26 07:12:19;;;;;;;5.63;1.20;;;23.60;96.90;;;;;;5142017;27;20311;-39
2022/08/26 07:14:47;;;;;;;2.00;0.90;;;23.50;96.20;;;;;;5115754;27;20221;-39
2022/08/26 07:17:19;;;;;;;3.03;0.98;;;23.60;96.20;;;;;;5118682;27;20637;-38
2022/08/26 07:19:47;;;;;;;3.85;0.80;;;23.60;96.20;;;;;;5103775;27;20213;-38
2022/08/26 07:22:17;;;;;;;2.40;1.05;;;23.60;96.20;;;;;;5105243;27;20230;-38
2022/08/26 07:24:44;;;;;;;3.58;0.70;;;23.60;96.20;;;;;;5113976;27;20190;-38
2022/08/26 07:27:17;;;;;;;3.95;0.77;;;23.60;96.30;;;;;;5111044;28;20288;-38
2022/08/26 07:29:47;;;;;;;2.67;0.63;;;23.60;96.20;;;;;;5117163;27;20217;-38
2022/08/26 07:32:18;;;;;;;3.90;0.90;;;23.60;96.20;;;;;;5119315;27;20300;-38
2022/08/26 07:34:45;;;;;;;2.92;0.90;;;23.60;96.40;;;;;;5110831;27;20197;-38
2022/08/26 07:37:13;;;;;;;3.85;0.98;;;23.60;96.30;;;;;;5117845;27;20285;-38
2022/08/26 07:39:40;;;;;;;4.18;0.63;;;23.70;96.50;;;;;;5113809;27;20659;-38
2022/08/26 07:42:14;;;;;;;2.47;0.68;;;23.70;96.30;;;;;;5130589;27;20216;-38
2022/08/26 07:44:41;;;;;;;4.32;1.10;;;23.70;96.30;;;;;;5119420;27;20197;-38
2022/08/26 07:47:11;;;;;;;5.10;0.80;;;23.70;96.50;;;;;;5115822;27;20282;-38
2022/08/26 07:49:55;;;;;;;3.13;0.95;;;23.80;96.40;;;;;;5121502;27;20209;-38
2022/08/26 07:52:24;;;;;;;3.97;0.98;;;23.80;96.50;;;;;;5116672;27;20205;-38
2022/08/26 07:54:55;;;;;;;2.33;0.93;;;23.90;96.40;;;;;;5110219;27;20190;-38
2022/08/26 07:57:23;;;;;;;2.25;0.82;;;23.90;96.60;;;;;;5123079;27;20708;-38
2022/08/26 07:59:51;;;;;;;2.53;0.98;;;23.90;96.50;;;;;;5100327;28;20238;-38
2022/08/26 08:02:22;;;;;;;4.50;1.17;;;23.90;96.50;;;;;;5129169;27;20237;-38
2022/08/26 08:04:53;;;;;;;2.25;0.70;;;24.00;96.60;;;;;;5140808;27;20250;-38
2022/08/26 08:07:25;;;;;;;5.85;1.00;;;24.00;96.50;;;;;;5114863;27;20193;-38
2022/08/26 08:10:19;;;;;;;4.55;1.05;;;24.10;96.50;;;;;;5118544;27;20583;-37
2022/08/26 08:12:50;;;;;;;1.45;0.70;;;24.10;96.50;;;;;;5125898;27;20204;-37
2022/08/26 08:15:24;;;;;;;2.03;0.60;;;24.20;96.60;;;;;;5111842;27;20201;-37
2022/08/26 08:17:51;;;;;;;1.90;0.65;;;24.10;96.50;;;;;;5127724;27;20300;-38
2022/08/26 08:20:21;;;;;;;6.82;1.08;;;24.10;96.50;;;;;;5124717;27;20249;-38
2022/08/26 08:22:50;;;;;;;2.22;0.70;;;24.30;96.60;;;;;;5116263;27;20226;-34
2022/08/26 08:25:20;;;;;;;4.82;0.77;;;24.30;96.50;;;;;;5129339;27;20198;-34
2022/08/26 08:27:48;;;;;;;3.13;0.95;;;24.40;96.80;;;;;;5141784;27;20556;-34
2022/08/26 08:30:18;;;;;;;4.68;1.05;;;24.40;96.60;;;;;;5118179;27;20198;-34
2022/08/26 08:32:54;;;;;;;4.32;0.80;;;24.50;96.80;;;;;;5124610;27;20209;-34
2022/08/26 08:35:25;;;;;;;3.13;1.10;;;24.50;96.70;;;;;;5115684;27;20208;-34
2022/08/26 08:37:55;;;;;;;8.43;1.70;;;24.50;96.60;;;;;;5096210;28;20218;-33
2022/08/26 08:40:27;;;;;;;3.15;0.80;;;24.60;96.70;;;;;;5114237;27;20671;-34
2022/08/26 08:43:05;;;;;;;11.73;1.35;;;24.60;96.70;;;;;;5106622;27;20217;-34
2022/08/26 08:45:44;;;;;;;3.60;1.20;;;24.70;96.70;;;;;;5129830;27;20201;-35
2022/08/26 08:48:34;;;;;;;17.15;2.28;;;24.70;96.70;;;;;;5112868;27;20206;-35
2022/08/26 08:51:33;;;;;;;11.43;2.40;;;24.70;96.70;;;;;;5098291;27;20279;-35
2022/08/26 08:54:01;;;;;;;14.75;2.17;;;24.70;96.80;;;;;;5114641;27;20210;-34
2022/08/26 08:57:01;;;;;;;6.32;1.20;;;24.70;96.70;;;;;;5100690;27;20313;-34
2022/08/26 08:59:35;;;;;;;2.97;0.98;;;24.70;96.70;;;;;;5122485;27;20799;-34
2022/08/26 09:02:32;;;;;;;3.72;0.80;;;24.70;96.60;;;;;;5112585;27;20219;-35
2022/08/26 09:05:38;;;;;;;5.90;1.25;;;24.70;96.70;;;;;;5127669;27;20189;-34
2022/08/26 09:08:27;;;;;;;6.30;1.20;;;24.70;96.70;;;;;;5116819;27;20619;-34
2022/08/26 09:10:59;;;;;;;7.78;1.33;;;24.60;96.60;;;;;;5125995;27;20555;-34
2022/08/26 09:13:28;;;;;;;6.97;1.60;;;24.70;96.70;;;;;;5118681;27;20723;-34
2022/08/26 09:16:06;;;;;;;3.28;1.20;;;24.70;96.60;;;;;;5110466;27;20230;-34
2022/08/26 09:19:06;;;;;;;6.55;1.00;;;24.60;96.60;;;;;;5123166;27;20699;-34
2022/08/26 09:21:35;;;;;;;6.45;1.52;;;24.60;96.50;;;;;;5112152;27;20193;-34
2022/08/26 09:24:06;;;;;;;5.72;0.93;;;24.60;96.60;;;;;;5119317;27;20286;-34
2022/08/26 09:26:46;;;;;;;6.00;0.88;;;24.60;96.60;;;;;;5100795;27;20234;-34
2022/08/26 09:29:17;;;;;;;3.83;1.02;;;24.50;96.50;;;;;;5110235;27;20201;-34
2022/08/26 09:31:53;;;;;;;6.38;1.10;;;24.60;96.70;;;;;;5107298;27;20201;-34
2022/08/26 09:34:26;;;;;;;3.95;1.05;;;24.60;96.60;;;;;;5099639;27;20289;-34
2022/08/26 09:36:56;;;;;;;4.18;1.20;;;24.60;96.60;;;;;;5090706;27;20619;-35
2022/08/26 09:39:28;;;;;;;2.60;1.23;;;24.60;96.60;;;;;;5125077;27;20698;-34
2022/08/26 09:42:12;;;;;;;7.57;1.63;;;24.60;96.60;;;;;;5124855;27;20209;-35
2022/08/26 09:45:03;;;;;;;2.75;1.00;;;24.60;96.60;;;;;;5108830;28;20202;-34
2022/08/26 09:47:38;;;;;;;3.88;1.10;;;24.50;96.60;;;;;;5120134;27;20292;-34
2022/08/26 09:50:27;;;;;;;6.65;1.20;;;24.50;96.60;;;;;;5118754;27;20288;-34
2022/08/26 09:53:13;;;;;;;4.95;1.00;;;24.50;96.50;;;;;;5119997;27;20300;-34
2022/08/26 09:55:49;;;;;;;4.68;1.20;;;24.50;96.50;;;;;;5125081;27;20587;-34
2022/08/26 09:58:39;;;;;;;2.63;1.15;;;24.50;96.50;;;;;;5132682;27;20609;-34
2022/08/26 10:01:22;;;;;;;2.80;0.93;;;24.50;96.50;;;;;;5101890;27;20238;-34
2022/08/26 10:03:52;;;;;;;3.33;0.98;;;24.50;96.50;;;;;;5101431;27;20214;-34
2022/08/26 10:06:27;;;;;;;2.63;1.00;;;24.50;96.60;;;;;;5089334;28;20198;-34
2022/08/26 10:08:57;;;;;;;3.35;1.05;;;24.50;96.50;;;;;;5100854;27;20224;-34
2022/08/26 10:11:46;;;;;;;4.57;1.05;;;24.50;96.50;;;;;;5116641;27;20198;-34
2022/08/26 10:14:25;;;;;;;2.72;0.98;;;24.50;96.50;;;;;;5110345;27;20529;-34
2022/08/26 10:16:59;;;;;;;3.42;1.10;;;24.50;96.50;;;;;;5116199;27;20205;-34
2022/08/26 10:19:46;;;;;;;5.18;0.93;;;24.50;96.50;;;;;;5109338;27;20213;-34
2022/08/26 10:22:32;;;;;;;2.63;0.93;;;24.50;96.50;;;;;;5110396;27;20218;-34
2022/08/26 10:25:04;;;;;;;2.70;1.00;;;24.50;96.50;;;;;;5109622;28;20197;-34
2022/08/26 10:27:46;;;;;;;4.72;1.00;;;24.50;96.50;;;;;;5088041;27;20214;-34
2022/08/26 10:30:23;;;;;;;2.03;0.63;;;24.50;96.40;;;;;;5125132;27;20593;-34
2022/08/26 10:33:07;;;;;;;4.78;1.00;;;24.50;96.40;;;;;;5114233;27;20245;-34
2022/08/26 10:35:47;;;;;;;3.45;0.80;;;24.50;96.40;;;;;;5093834;28;20284;-34
2022/08/26 10:38:18;;;;;;;2.67;0.60;;;24.60;96.40;;;;;;5116854;27;20228;-34
2022/08/26 10:40:55;;;;;;;2.00;0.60;;;24.50;96.40;;;;;;5122604;27;20206;-34
2022/08/26 10:43:28;;;;;;;3.45;0.80;;;24.60;96.40;;;;;;5120904;28;20718;-34
2022/08/26 10:46:04;;;;;;;2.13;0.57;;;24.60;96.40;;;;;;5109787;28;20225;-35
2022/08/26 10:48:58;;;;;;;2.75;0.70;;;24.60;96.30;;;;;;5113408;28;20569;-34
2022/08/26 10:51:35;;;;;;;1.95;0.77;;;24.60;96.30;;;;;;5093480;28;20238;-34
2022/08/26 10:54:21;;;;;;;5.30;1.02;;;24.60;96.50;;;;;;5112101;28;20312;-34
2022/08/26 10:57:16;;;;;;;1.70;0.73;;;24.60;96.30;;;;;;5099878;28;20984;-34
2022/08/26 10:59:57;;;;;;;5.32;1.00;;;24.60;96.30;;;;;;5119579;27;20349;-34
2022/08/26 11:02:24;;;;;;;1.85;0.98;;;24.60;96.30;;;;;;5124285;27;20221;-34
2022/08/26 11:05:17;;;;;;;2.40;0.90;;;24.60;96.20;;;;;;5131908;27;20215;-35
2022/08/26 11:07:54;;;;;;;3.33;1.15;;;24.60;96.10;;;;;;5094724;28;20546;-34
2022/08/26 11:10:23;;;;;;;4.40;1.10;;;24.50;96.10;;;;;;5102580;28;20190;-34
2022/08/26 11:13:02;;;;;;;4.82;1.00;;;24.50;96.10;;;;;;5101023;27;20263;-34
2022/08/26 11:15:29;;;;;;;4.45;1.20;;;24.50;96.10;;;;;;5118345;28;20256;-34
2022/08/26 11:18:02;;;;;;;2.80;1.33;;;24.50;96.20;;;;;;5117260;28;20206;-34
2022/08/26 11:20:44;;;;;;;3.25;1.25;;;24.50;96.20;;;;;;5106232;28;20309;-35
2022/08/26 11:23:19;;;;;;;2.83;1.30;;;24.50;96.20;;;;;;5118347;27;20225;-34
2022/08/26 11:26:10;;;;;;;7.68;1.83;;;24.50;96.20;;;;;;5114692;28;20632;-34
2022/08/26 11:28:49;;;;;;;3.28;1.63;;;24.60;96.20;;;;;;5110266;27;20210;-34
2022/08/26 11:31:25;;;;;;;5.85;1.80;;;24.60;96.20;;;;;;5120358;27;20225;-34
2022/08/26 11:34:05;;;;;;;3.25;1.75;;;24.60;96.00;;;;;;5102366;27;20198;-34
2022/08/26 11:36:52;;;;;;;2.15;1.15;;;24.60;95.90;;;;;;5106613;28;20201;-34
2022/08/26 11:39:23;;;;;;;4.07;1.20;;;24.50;95.90;;;;;;5123292;27;20531;-34
2022/08/26 11:41:53;;;;;;;4.78;1.20;;;24.50;96.00;;;;;;5106439;27;20214;-34
2022/08/26 11:44:28;;;;;;;1.92;0.90;;;24.50;96.10;;;;;;5122921;27;20228;-34
2022/08/26 11:47:00;;;;;;;1.67;0.88;;;24.50;96.20;;;;;;5096983;27;20232;-35
2022/08/26 11:49:30;;;;;;;2.35;0.80;;;24.60;96.10;;;;;;5116327;27;20200;-34
2022/08/26 11:52:18;;;;;;;2.20;0.80;;;24.50;96.20;;;;;;5113774;27;20290;-35
2022/08/26 11:55:06;;;;;;;3.13;1.10;;;24.60;96.20;;;;;;5127621;27;20770;-35
2022/08/26 11:57:51;;;;;;;1.65;0.93;;;24.70;96.10;;;;;;5120135;27;20632;-34
2022/08/26 12:00:44;;;;;;;4.47;0.80;;;24.70;96.00;;;;;;5125669;27;20715;-34
2022/08/26 12:03:18;;;;;;;1.20;0.88;;;24.70;96.10;;;;;;5100294;27;20707;-34
2022/08/26 12:05:48;;;;;;;3.20;0.90;;;24.70;96.10;;;;;;5126866;27;20310;-35
2022/08/26 12:08:20;;;;;;;3.00;0.77;;;24.70;96.20;;;;;;5108808;27;20212;-35
2022/08/26 12:11:00;;;;;;;3.75;1.10;;;24.80;96.00;;;;;;5126694;27;20198;-34
2022/08/26 12:13:28;;;;;;;5.68;1.42;;;24.80;95.90;;;;;;5120296;27;20213;-34
2022/08/26 12:15:59;;;;;;;2.15;1.08;;;24.80;95.90;;;;;;5113633;27;20234;-34
2022/08/26 12:18:30;;;;;;;4.40;0.63;;;24.70;95.80;;;;;;5101040;27;20292;-34
2022/08/26 12:21:17;;;;;;;2.13;0.80;;;24.70;95.80;;;;;;5100580;27;20210;-34
2022/08/26 12:23:50;;;;;;;2.15;0.82;;;24.70;95.80;;;;;;5126124;27;20214;-34
2022/08/26 12:26:29;;;;;;;1.52;0.70;;;24.50;95.90;;;;;;5108651;27;20284;-34
2022/08/26 12:29:05;;;;;;;1.38;0.70;;;24.50;95.80;;;;;;5111057;27;20201;-34
2022/08/26 12:31:48;;;;;;;1.70;0.63;;;24.40;95.80;;;;;;5113543;27;20222;-35
2022/08/26 12:34:18;;;;;;;2.30;0.88;;;24.40;95.80;;;;;;5116228;27;20273;-35
2022/08/26 12:36:53;;;;;;;2.35;0.98;;;24.50;95.80;;;;;;5123151;27;20202;-35
2022/08/26 12:39:38;;;;;;;2.92;1.23;;;24.50;95.80;;;;;;5110519;27;20210;-34
2022/08/26 12:42:14;;;;;;;3.85;1.13;;;24.50;95.60;;;;;;5121068;27;20578;-34
2022/08/26 12:45:00;;;;;;;2.50;1.02;;;24.50;95.90;;;;;;5132459;27;20267;-34
2022/08/26 12:47:33;;;;;;;5.00;1.30;;;24.50;95.60;;;;;;5107107;27;20209;-34
2022/08/26 12:50:20;;;;;;;2.53;1.20;;;24.50;95.60;;;;;;5118304;27;20301;-35
2022/08/26 12:52:55;;;;;;;4.15;1.30;;;24.60;95.60;;;;;;5126941;27;20213;-34
2022/08/26 12:55:24;;;;;;;2.70;1.55;;;24.60;95.30;;;;;;5115241;27;20197;-34
2022/08/26 12:58:14;;;;;;;3.35;1.30;;;24.70;95.60;;;;;;5126536;27;20232;-34
2022/08/26 13:00:49;;;;;;;2.90;1.50;;;24.70;95.80;;;;;;5118303;27;20224;-34
2022/08/26 13:03:31;;;;;;;3.42;1.52;;;24.80;96.00;;;;;;5115583;27;20224;-35
2022/08/26 13:06:24;;;;;;;1.55;1.05;;;24.90;95.90;;;;;;5112450;27;20209;-34
2022/08/26 13:08:59;;;;;;;2.65;1.30;;;25.00;95.80;;;;;;5123698;27;20573;-34
2022/08/26 13:11:53;;;;;;;3.85;1.27;;;25.00;95.80;;;;;;5114773;27;20246;-34
2022/08/26 13:14:25;;;;;;;2.58;1.15;;;25.10;95.70;;;;;;5106366;27;21251;-34
2022/08/26 13:16:55;;;;;;;2.70;0.90;;;25.20;95.70;;;;;;5114577;27;20575;-34
2022/08/26 13:19:24;;;;;;;2.53;1.25;;;25.20;95.80;;;;;;5085984;27;20560;-34
2022/08/26 13:21:55;;;;;;;1.60;1.00;;;25.20;95.80;;;;;;5117143;27;20213;-34
2022/08/26 13:24:31;;;;;;;4.20;1.13;;;25.30;95.90;;;;;;5093717;27;20657;-34
2022/08/26 13:26:59;;;;;;;3.33;1.02;;;25.30;95.60;;;;;;5122048;27;20635;-35